createdAt,value
2023-05-10T00:00:57.827Z,17.15
2023-05-10T00:03:25.547Z,17.09
2023-05-10T00:05:54.458Z,17.07
2023-05-10T00:08:21.949Z,17.16
2023-05-10T00:10:49.570Z,17.16
2023-05-10T00:13:17.444Z,17.16
2023-05-10T00:15:44.991Z,17.33
2023-05-10T00:18:12.561Z,17.34
2023-05-10T00:20:40.036Z,17.33
2023-05-10T00:23:08.837Z,17.29
2023-05-10T00:25:36.305Z,17.34
2023-05-10T00:28:03.792Z,17.30
2023-05-10T00:30:31.275Z,17.28
2023-05-10T00:32:58.834Z,17.19
2023-05-10T00:35:26.998Z,17.24
2023-05-10T00:37:54.580Z,17.24
2023-05-10T00:40:23.568Z,17.24
2023-05-10T00:42:51.053Z,17.17
2023-05-10T00:45:18.570Z,17.23
2023-05-10T00:47:46.138Z,17.24
2023-05-10T00:50:13.976Z,17.30
2023-05-10T00:52:42.581Z,17.28
2023-05-10T00:55:11.838Z,17.17
2023-05-10T00:57:40.880Z,17.20
2023-05-10T01:00:12.464Z,17.17
2023-05-10T01:02:40.455Z,17.23
2023-05-10T01:05:08.696Z,17.25
2023-05-10T01:07:36.292Z,17.23
2023-05-10T01:10:03.832Z,17.12
2023-05-10T01:12:31.633Z,17.05
2023-05-10T01:15:02.127Z,16.88
2023-05-10T01:17:29.909Z,16.85
2023-05-10T01:19:57.474Z,16.58
2023-05-10T01:22:44.968Z,16.40
2023-05-10T01:25:33.819Z,16.34
2023-05-10T01:28:30.754Z,16.29
2023-05-10T01:31:32.796Z,16.07
2023-05-10T01:34:08.877Z,15.76
2023-05-10T01:36:44.225Z,15.84
2023-05-10T01:39:17.552Z,15.86
2023-05-10T01:41:51.818Z,15.86
2023-05-10T01:44:26.705Z,15.72
2023-05-10T01:47:00.110Z,15.59
2023-05-10T01:49:33.897Z,15.51
2023-05-10T01:52:05.341Z,15.28
2023-05-10T01:54:36.329Z,15.63
2023-05-10T01:57:08.402Z,15.75
2023-05-10T01:59:41.567Z,15.78
2023-05-10T02:02:12.688Z,15.62
2023-05-10T02:04:42.844Z,15.66
2023-05-10T02:07:11.457Z,15.54
2023-05-10T02:09:40.020Z,15.41
2023-05-10T02:12:09.546Z,15.49
2023-05-10T02:14:38.682Z,15.37
2023-05-10T02:17:08.776Z,15.36
2023-05-10T02:19:39.463Z,15.76
2023-05-10T02:22:09.963Z,15.61
2023-05-10T02:24:39.375Z,15.93
2023-05-10T02:27:08.142Z,16.13
2023-05-10T02:29:36.456Z,16.19
2023-05-10T02:32:04.956Z,16.15
2023-05-10T02:34:33.678Z,16.15
2023-05-10T02:37:03.016Z,16.03
2023-05-10T02:39:33.659Z,16.13
2023-05-10T02:42:02.543Z,16.17
2023-05-10T02:44:32.122Z,15.92
2023-05-10T02:46:59.858Z,15.83
2023-05-10T02:49:27.415Z,15.91
2023-05-10T02:51:59.331Z,15.84
2023-05-10T02:54:36.805Z,15.94
2023-05-10T02:57:07.868Z,15.90
2023-05-10T02:59:35.463Z,15.81
2023-05-10T03:02:04.837Z,15.90
2023-05-10T03:04:32.369Z,15.88
2023-05-10T03:07:00.238Z,15.56
2023-05-10T03:09:27.962Z,15.51
2023-05-10T03:12:02.803Z,15.38
2023-05-10T03:14:47.365Z,15.13
2023-05-10T03:17:24.845Z,14.83
2023-05-10T03:19:57.037Z,14.61
2023-05-10T03:22:27.702Z,14.66
2023-05-10T03:24:58.552Z,14.90
2023-05-10T03:27:28.120Z,15.02
2023-05-10T03:29:57.888Z,14.96
2023-05-10T03:32:25.412Z,14.99
2023-05-10T03:34:52.912Z,15.03
2023-05-10T03:37:20.452Z,15.16
2023-05-10T03:39:47.971Z,15.26
2023-05-10T03:42:15.467Z,14.85
2023-05-10T03:44:42.923Z,14.82
2023-05-10T03:47:11.773Z,15.20
2023-05-10T03:49:39.269Z,15.29
2023-05-10T03:52:07.515Z,15.16
2023-05-10T03:54:35.018Z,15.23
2023-05-10T03:57:03.850Z,15.16
2023-05-10T03:59:31.423Z,15.13
2023-05-10T04:01:58.935Z,15.04
2023-05-10T04:04:27.749Z,15.22
2023-05-10T04:06:55.819Z,15.34
2023-05-10T04:09:23.274Z,15.18
2023-05-10T04:11:50.858Z,15.28
2023-05-10T04:14:18.442Z,15.34
2023-05-10T04:16:45.980Z,15.20
2023-05-10T04:19:13.490Z,14.90
2023-05-10T04:21:42.325Z,14.57
2023-05-10T04:24:09.797Z,14.74
2023-05-10T04:26:37.247Z,14.82
2023-05-10T04:29:04.773Z,15.02
2023-05-10T04:31:32.236Z,15.04
2023-05-10T04:33:59.744Z,14.84
2023-05-10T04:36:27.286Z,14.79
2023-05-10T04:38:56.109Z,14.82
2023-05-10T04:41:23.567Z,14.90
2023-05-10T04:43:51.098Z,14.46
2023-05-10T04:46:18.644Z,14.41
2023-05-10T04:48:46.137Z,14.23
2023-05-10T04:51:13.622Z,14.47
2023-05-10T04:53:43.008Z,14.59
2023-05-10T04:56:13.412Z,14.80
2023-05-10T04:58:40.905Z,15.06
2023-05-10T05:01:09.187Z,15.24
2023-05-10T05:03:37.107Z,15.41
2023-05-10T05:06:05.383Z,15.40
2023-05-10T05:08:32.993Z,15.54
2023-05-10T05:11:00.470Z,15.76
2023-05-10T05:13:29.573Z,15.86
2023-05-10T05:15:57.149Z,15.84
2023-05-10T05:18:24.641Z,15.90
2023-05-10T05:20:52.105Z,15.77
2023-05-10T05:23:21.570Z,16.02
2023-05-10T05:25:49.078Z,15.84
2023-05-10T05:28:16.694Z,15.90
2023-05-10T05:30:45.484Z,15.71
2023-05-10T05:33:12.999Z,15.40
2023-05-10T05:35:40.518Z,15.16
2023-05-10T05:38:08.006Z,14.33
2023-05-10T05:40:35.720Z,13.92
2023-05-10T05:43:03.364Z,13.90
2023-05-10T05:45:30.872Z,14.42
2023-05-10T05:47:59.853Z,14.43
2023-05-10T05:50:27.420Z,14.64
2023-05-10T05:52:54.882Z,15.00
2023-05-10T05:55:22.356Z,15.26
2023-05-10T05:57:49.805Z,14.78
2023-05-10T06:00:18.180Z,14.88
2023-05-10T06:02:45.728Z,14.88
2023-05-10T06:05:15.110Z,14.15
2023-05-10T06:07:43.754Z,13.79
2023-05-10T06:10:11.741Z,14.20
2023-05-10T06:12:39.220Z,14.21
2023-05-10T06:15:07.598Z,14.00
2023-05-10T06:17:35.069Z,13.91
2023-05-10T06:20:02.640Z,13.71
2023-05-10T06:22:31.429Z,14.04
2023-05-10T06:24:58.878Z,14.08
2023-05-10T06:27:26.868Z,13.95
2023-05-10T06:30:02.154Z,14.01
2023-05-10T06:32:33.209Z,13.95
2023-05-10T06:35:00.717Z,13.60
2023-05-10T06:37:28.208Z,13.68
2023-05-10T06:39:57.072Z,14.10
2023-05-10T06:42:26.300Z,14.23
2023-05-10T06:44:54.056Z,13.98
2023-05-10T06:47:21.721Z,13.72
2023-05-10T06:49:49.188Z,13.23
2023-05-10T06:52:16.653Z,13.10
2023-05-10T06:54:44.108Z,13.03
2023-05-10T06:57:23.259Z,13.22
2023-05-10T06:59:58.511Z,13.12
2023-05-10T07:02:26.264Z,13.43
2023-05-10T07:04:54.125Z,13.35
2023-05-10T07:07:21.763Z,13.57
2023-05-10T07:09:50.586Z,13.63
2023-05-10T07:12:19.592Z,13.52
2023-05-10T07:14:47.541Z,13.96
2023-05-10T07:17:15.033Z,13.68
2023-05-10T07:19:42.601Z,13.85
2023-05-10T07:22:10.062Z,14.24
2023-05-10T07:24:37.688Z,14.01
2023-05-10T07:27:05.402Z,14.73
2023-05-10T07:29:34.593Z,14.96
2023-05-10T07:32:02.147Z,15.29
2023-05-10T07:34:31.076Z,15.12
2023-05-10T07:37:01.129Z,15.08
2023-05-10T07:39:28.743Z,14.75
2023-05-10T07:41:56.699Z,14.72
2023-05-10T07:44:24.564Z,14.40
2023-05-10T07:46:53.498Z,14.65
2023-05-10T07:49:21.000Z,14.75
2023-05-10T07:51:48.835Z,14.96
2023-05-10T07:54:16.315Z,15.40
2023-05-10T07:56:46.531Z,15.70
2023-05-10T07:59:17.732Z,15.76
2023-05-10T08:01:45.530Z,15.63
2023-05-10T08:04:14.369Z,14.75
2023-05-10T08:06:42.043Z,14.55
2023-05-10T08:09:10.059Z,14.98
2023-05-10T08:11:37.606Z,15.61
2023-05-10T08:14:05.128Z,15.71
2023-05-10T08:16:33.299Z,16.36
2023-05-10T08:19:00.980Z,16.03
2023-05-10T08:21:29.944Z,15.87
2023-05-10T08:23:57.457Z,16.01
2023-05-10T08:26:24.961Z,16.61
2023-05-10T08:28:52.426Z,15.77
2023-05-10T08:31:20.156Z,16.31
2023-05-10T08:33:47.689Z,15.98
2023-05-10T08:36:20.538Z,16.09
2023-05-10T08:38:50.278Z,15.24
2023-05-10T08:41:19.100Z,15.00
2023-05-10T08:43:47.946Z,15.43
2023-05-10T08:46:18.589Z,15.60
2023-05-10T08:48:47.284Z,16.23
2023-05-10T08:51:17.383Z,16.68
2023-05-10T08:53:46.067Z,16.98
2023-05-10T08:56:16.538Z,16.50
2023-05-10T08:58:44.181Z,16.42
2023-05-10T09:01:12.066Z,15.82
2023-05-10T09:03:40.424Z,14.83
2023-05-10T09:06:08.664Z,15.42
2023-05-10T09:08:38.109Z,16.29
2023-05-10T09:11:05.784Z,16.78
2023-05-10T09:13:34.859Z,16.71
2023-05-10T09:16:13.574Z,16.67
2023-05-10T09:18:48.421Z,16.51
2023-05-10T09:21:16.073Z,15.89
2023-05-10T09:23:47.373Z,15.64
2023-05-10T09:26:15.682Z,15.86
2023-05-10T09:28:54.581Z,16.05
2023-05-10T09:31:22.096Z,16.51
2023-05-10T09:33:50.670Z,16.69
2023-05-10T09:36:18.890Z,16.61
2023-05-10T09:38:52.686Z,16.60
2023-05-10T09:41:21.622Z,17.95
2023-05-10T09:43:49.402Z,18.90
2023-05-10T09:46:18.391Z,19.52
2023-05-10T09:48:48.044Z,21.31
2023-05-10T09:51:21.834Z,21.30
2023-05-10T09:53:51.445Z,21.03
2023-05-10T09:56:38.312Z,19.97
2023-05-10T09:59:06.354Z,20.67
2023-05-10T10:01:35.504Z,21.99
2023-05-10T10:04:05.130Z,21.42
2023-05-10T10:06:37.715Z,20.89
2023-05-10T10:09:05.732Z,21.17
2023-05-10T10:11:33.767Z,21.41
2023-05-10T10:14:01.545Z,20.75
2023-05-10T10:16:30.688Z,23.69
2023-05-10T10:19:00.481Z,24.73
2023-05-10T10:21:28.690Z,22.38
2023-05-10T10:23:56.871Z,21.28
2023-05-10T10:26:25.987Z,19.63
2023-05-10T10:29:02.127Z,18.66
2023-05-10T10:31:36.855Z,18.04
2023-05-10T10:34:08.762Z,18.29
2023-05-10T10:36:42.601Z,19.14
2023-05-10T10:39:11.831Z,21.35
2023-05-10T10:41:44.758Z,21.22
2023-05-10T10:44:43.449Z,19.93
2023-05-10T10:47:28.339Z,19.99
2023-05-10T10:50:07.647Z,18.64
2023-05-10T10:52:36.144Z,18.13
2023-05-10T10:55:06.213Z,17.73
2023-05-10T10:57:35.650Z,17.94
2023-05-10T11:00:26.278Z,17.95
2023-05-10T11:02:55.572Z,18.38
2023-05-10T11:05:36.506Z,17.80
2023-05-10T11:08:13.581Z,18.70
2023-05-10T11:10:42.509Z,18.61
2023-05-10T11:13:11.314Z,18.94
2023-05-10T11:15:40.444Z,18.64
2023-05-10T11:18:21.390Z,18.77
2023-05-10T11:20:54.668Z,19.27
2023-05-10T11:23:22.270Z,18.94
2023-05-10T11:25:51.069Z,19.93
2023-05-10T11:28:20.095Z,21.06
2023-05-10T11:30:47.700Z,22.24
2023-05-10T11:33:20.344Z,22.40
2023-05-10T11:35:48.177Z,22.89
2023-05-10T11:38:17.266Z,21.95
2023-05-10T11:40:45.357Z,21.85
2023-05-10T11:43:13.251Z,22.73
2023-05-10T11:45:43.208Z,23.05
2023-05-10T11:48:10.766Z,24.43
2023-05-10T11:50:38.376Z,24.12
2023-05-10T11:53:06.253Z,22.82
2023-05-10T11:55:36.622Z,21.58
2023-05-10T11:58:04.606Z,20.31
2023-05-10T12:00:33.014Z,19.02
2023-05-10T12:03:02.573Z,17.72
2023-05-10T12:05:33.513Z,17.58
2023-05-10T12:08:13.077Z,17.34
2023-05-10T12:10:42.062Z,17.30
2023-05-10T12:13:13.870Z,17.35
2023-05-10T12:15:41.418Z,17.93
2023-05-10T12:18:11.334Z,17.83
2023-05-10T12:20:39.668Z,17.69
2023-05-10T12:23:07.922Z,17.58
2023-05-10T12:25:36.732Z,18.29
2023-05-10T12:28:07.911Z,18.99
2023-05-10T12:30:36.721Z,19.29
2023-05-10T12:33:09.208Z,18.73
2023-05-10T12:35:46.687Z,18.41
2023-05-10T12:38:31.598Z,18.45
2023-05-10T12:41:00.373Z,19.36
2023-05-10T12:43:29.296Z,18.15
2023-05-10T12:45:56.913Z,18.52
2023-05-10T12:48:24.892Z,19.15
2023-05-10T12:50:52.400Z,19.94
2023-05-10T12:53:19.868Z,20.27
2023-05-10T12:55:47.332Z,20.43
2023-05-10T12:58:27.841Z,20.95
2023-05-10T13:01:03.910Z,21.89
2023-05-10T13:03:31.527Z,22.57
2023-05-10T13:05:59.199Z,23.11
2023-05-10T13:08:26.722Z,23.75
2023-05-10T13:10:54.259Z,23.90
2023-05-10T13:13:21.719Z,23.80
2023-05-10T13:15:49.194Z,22.48
2023-05-10T13:18:18.152Z,22.83
2023-05-10T13:20:46.116Z,23.26
2023-05-10T13:23:13.661Z,23.16
2023-05-10T13:25:41.198Z,23.45
2023-05-10T13:28:08.662Z,23.76
2023-05-10T13:30:36.118Z,24.33
2023-05-10T13:33:03.619Z,24.77
2023-05-10T13:35:32.439Z,23.91
2023-05-10T13:37:59.992Z,20.59
2023-05-10T13:40:27.471Z,18.72
2023-05-10T13:42:54.946Z,18.01
2023-05-10T13:45:22.514Z,17.55
2023-05-10T13:47:50.031Z,17.75
2023-05-10T13:50:17.831Z,18.08
2023-05-10T13:52:46.650Z,18.13
2023-05-10T13:55:15.276Z,18.09
2023-05-10T13:57:44.087Z,17.61
2023-05-10T14:00:12.580Z,17.76
2023-05-10T14:02:40.077Z,17.38
2023-05-10T14:05:08.065Z,17.82
2023-05-10T14:07:35.520Z,18.06
2023-05-10T14:10:04.747Z,18.39
2023-05-10T14:12:32.351Z,19.47
2023-05-10T14:14:59.996Z,19.90
2023-05-10T14:17:27.519Z,20.45
2023-05-10T14:19:55.069Z,20.70
2023-05-10T14:22:22.927Z,19.60
2023-05-10T14:24:51.066Z,19.04
2023-05-10T14:27:20.409Z,19.23
2023-05-10T14:29:47.859Z,19.38
2023-05-10T14:32:15.458Z,18.43
2023-05-10T14:34:43.138Z,17.77
2023-05-10T14:37:12.240Z,17.47
2023-05-10T14:39:40.040Z,16.84
2023-05-10T14:42:07.823Z,16.55
2023-05-10T14:44:36.620Z,16.24
2023-05-10T14:47:04.088Z,15.66
2023-05-10T14:49:31.716Z,15.52
2023-05-10T14:51:59.232Z,15.52
2023-05-10T14:54:26.868Z,15.04
2023-05-10T14:56:54.319Z,14.45
2023-05-10T14:59:22.563Z,14.25
2023-05-10T15:01:51.790Z,14.27
2023-05-10T15:04:19.744Z,14.21
2023-05-10T15:06:47.753Z,14.02
2023-05-10T15:09:16.493Z,14.00
2023-05-10T15:11:45.347Z,13.96
2023-05-10T15:14:12.784Z,14.25
2023-05-10T15:16:40.621Z,15.04
2023-05-10T15:19:09.475Z,15.19
2023-05-10T15:21:39.722Z,15.54
2023-05-10T15:24:07.390Z,15.59
2023-05-10T15:26:35.004Z,15.59
2023-05-10T15:29:02.579Z,15.68
2023-05-10T15:31:30.182Z,15.71
2023-05-10T15:33:59.333Z,15.43
2023-05-10T15:36:28.166Z,15.35
2023-05-10T15:38:56.858Z,15.75
2023-05-10T15:41:24.694Z,16.09
2023-05-10T15:43:52.225Z,15.94
2023-05-10T15:46:19.688Z,15.38
2023-05-10T15:48:47.191Z,15.09
2023-05-10T15:51:15.453Z,15.42
2023-05-10T15:53:56.550Z,15.96
2023-05-10T15:56:31.682Z,15.75
2023-05-10T15:58:59.132Z,15.55
2023-05-10T16:01:26.752Z,15.43
2023-05-10T16:03:54.333Z,15.68
2023-05-10T16:06:22.065Z,15.61
2023-05-10T16:08:51.994Z,15.72
2023-05-10T16:11:21.112Z,15.96
2023-05-10T16:13:48.611Z,15.89
2023-05-10T16:16:16.156Z,15.83
2023-05-10T16:18:43.807Z,15.25
2023-05-10T16:21:11.503Z,15.13
2023-05-10T16:23:38.951Z,15.46
2023-05-10T16:26:07.753Z,15.72
2023-05-10T16:28:35.319Z,15.82
2023-05-10T16:31:02.962Z,15.68
2023-05-10T16:33:30.738Z,16.00
2023-05-10T16:35:58.249Z,15.68
2023-05-10T16:38:25.730Z,15.85
2023-05-10T16:40:53.218Z,15.97
2023-05-10T16:43:24.005Z,16.15
2023-05-10T16:45:52.814Z,16.16
2023-05-10T16:48:20.466Z,16.25
2023-05-10T16:50:48.957Z,16.13
2023-05-10T16:53:17.012Z,16.04
2023-05-10T16:55:44.466Z,15.89
2023-05-10T16:58:11.938Z,16.00
2023-05-10T17:00:40.753Z,16.21
2023-05-10T17:03:08.369Z,16.02
2023-05-10T17:05:35.969Z,15.97
2023-05-10T17:08:03.436Z,16.35
2023-05-10T17:10:30.967Z,16.52
2023-05-10T17:12:58.484Z,16.03
2023-05-10T17:15:26.217Z,15.87
2023-05-10T17:17:55.141Z,15.24
2023-05-10T17:20:22.838Z,14.92
2023-05-10T17:22:50.411Z,14.44
2023-05-10T17:25:18.097Z,14.45
2023-05-10T17:27:45.808Z,14.56
2023-05-10T17:30:13.946Z,14.92
2023-05-10T17:32:41.459Z,14.26
2023-05-10T17:35:10.723Z,14.66
2023-05-10T17:37:38.190Z,14.83
2023-05-10T17:40:07.859Z,15.11
2023-05-10T17:42:35.358Z,15.16
2023-05-10T17:45:03.717Z,15.00
2023-05-10T17:47:31.203Z,14.77
2023-05-10T17:49:58.710Z,14.50
2023-05-10T17:52:29.360Z,14.48
2023-05-10T17:54:57.938Z,13.87
2023-05-10T17:57:25.424Z,13.78
2023-05-10T17:59:52.852Z,13.56
2023-05-10T18:02:20.361Z,13.50
2023-05-10T18:04:49.242Z,12.97
2023-05-10T18:07:16.892Z,12.74
2023-05-10T18:09:45.872Z,12.64
2023-05-10T18:12:13.524Z,12.66
2023-05-10T18:14:41.605Z,12.59
2023-05-10T18:17:09.995Z,12.55
2023-05-10T18:19:37.697Z,12.84
2023-05-10T18:22:05.505Z,12.77
2023-05-10T18:24:40.307Z,12.61
2023-05-10T18:27:09.747Z,12.59
2023-05-10T18:29:37.708Z,12.49
2023-05-10T18:32:05.709Z,12.43
2023-05-10T18:34:33.287Z,12.52
2023-05-10T18:37:02.413Z,12.31
2023-05-10T18:39:30.618Z,12.35
2023-05-10T18:41:58.088Z,12.27
2023-05-10T18:44:26.949Z,12.31
2023-05-10T18:46:54.409Z,12.48
2023-05-10T18:49:21.898Z,12.34
2023-05-10T18:51:49.408Z,12.36
2023-05-10T18:54:16.974Z,12.21
2023-05-10T18:56:45.226Z,12.27
2023-05-10T18:59:13.271Z,12.12
2023-05-10T19:01:42.706Z,12.08
2023-05-10T19:04:10.261Z,12.18
2023-05-10T19:06:37.762Z,12.09
2023-05-10T19:09:05.406Z,12.30
2023-05-10T19:11:34.402Z,12.24
2023-05-10T19:14:02.265Z,12.39
2023-05-10T19:16:30.574Z,12.18
2023-05-10T19:18:59.698Z,12.32
2023-05-10T19:21:27.630Z,12.29
2023-05-10T19:23:58.002Z,12.26
2023-05-10T19:26:25.939Z,12.01
2023-05-10T19:28:53.644Z,11.98
2023-05-10T19:31:21.908Z,11.95
2023-05-10T19:33:49.528Z,12.06
2023-05-10T19:36:18.365Z,11.96
2023-05-10T19:38:45.879Z,11.90
2023-05-10T19:41:13.393Z,11.95
2023-05-10T19:43:41.801Z,11.90
2023-05-10T19:46:09.874Z,11.90
2023-05-10T19:48:37.595Z,11.89
2023-05-10T19:51:09.285Z,11.83
2023-05-10T19:53:41.259Z,11.84
2023-05-10T19:56:08.804Z,12.12
2023-05-10T19:58:36.522Z,12.04
2023-05-10T20:01:05.731Z,12.01
2023-05-10T20:03:33.564Z,12.03
2023-05-10T20:06:01.656Z,12.13
2023-05-10T20:08:29.646Z,12.01
2023-05-10T20:11:00.569Z,12.10
2023-05-10T20:13:28.039Z,11.98
2023-05-10T20:15:56.811Z,12.11
2023-05-10T20:18:24.654Z,12.11
2023-05-10T20:20:54.776Z,12.25
2023-05-10T20:23:22.406Z,11.90
2023-05-10T20:25:50.144Z,11.79
2023-05-10T20:28:22.539Z,11.98
2023-05-10T20:30:53.239Z,11.94
2023-05-10T20:33:21.021Z,11.94
2023-05-10T20:35:48.946Z,12.20
2023-05-10T20:38:16.772Z,12.25
2023-05-10T20:40:44.397Z,12.43
2023-05-10T20:43:11.909Z,12.73
2023-05-10T20:45:40.737Z,12.13
2023-05-10T20:48:09.502Z,11.94
2023-05-10T20:50:37.001Z,11.88
2023-05-10T20:53:04.451Z,11.93
2023-05-10T20:55:31.936Z,11.90
2023-05-10T20:57:59.449Z,12.02
2023-05-10T21:00:27.178Z,12.10
2023-05-10T21:02:56.810Z,12.10
2023-05-10T21:05:24.496Z,12.11
2023-05-10T21:07:54.052Z,11.89
2023-05-10T21:10:21.871Z,11.81
2023-05-10T21:12:49.744Z,11.94
2023-05-10T21:15:17.601Z,12.11
2023-05-10T21:17:45.752Z,12.20
2023-05-10T21:20:15.244Z,11.98
2023-05-10T21:22:42.978Z,12.14
2023-05-10T21:25:10.926Z,11.94
2023-05-10T21:27:38.415Z,11.87
2023-05-10T21:30:07.247Z,11.87
2023-05-10T21:32:35.674Z,11.86
2023-05-10T21:35:04.218Z,11.83
2023-05-10T21:37:33.076Z,11.69
2023-05-10T21:40:02.005Z,11.74
2023-05-10T21:42:29.466Z,11.68
2023-05-10T21:44:57.000Z,11.61
2023-05-10T21:47:24.484Z,11.58
2023-05-10T21:49:51.967Z,11.58
2023-05-10T21:52:19.438Z,11.67
2023-05-10T21:54:48.542Z,11.64
2023-05-10T21:57:16.055Z,11.60
2023-05-10T21:59:43.552Z,11.72
2023-05-10T22:02:11.083Z,11.56
2023-05-10T22:04:38.578Z,11.65
2023-05-10T22:07:06.084Z,11.67
2023-05-10T22:09:33.569Z,11.78
2023-05-10T22:12:02.366Z,11.75
2023-05-10T22:14:29.822Z,12.10
2023-05-10T22:16:58.139Z,12.18
2023-05-10T22:19:25.824Z,12.14
2023-05-10T22:21:53.943Z,12.23
2023-05-10T22:24:21.431Z,12.40
2023-05-10T22:26:48.903Z,12.93
2023-05-10T22:29:17.722Z,12.85
2023-05-10T22:31:45.385Z,12.90
2023-05-10T22:34:12.853Z,12.60
2023-05-10T22:36:40.297Z,12.68
2023-05-10T22:39:08.283Z,12.32
2023-05-10T22:41:35.744Z,12.13
2023-05-10T22:44:04.848Z,12.02
2023-05-10T22:46:33.821Z,11.98
2023-05-10T22:49:01.730Z,12.32
2023-05-10T22:51:29.198Z,12.16
2023-05-10T22:53:56.673Z,11.77
2023-05-10T22:56:24.158Z,11.71
2023-05-10T22:58:52.220Z,11.55
2023-05-10T23:01:19.781Z,11.66
2023-05-10T23:03:48.620Z,11.65
2023-05-10T23:06:16.076Z,11.70
2023-05-10T23:08:43.543Z,11.55
2023-05-10T23:11:11.009Z,11.50
2023-05-10T23:13:38.469Z,11.45
2023-05-10T23:16:06.987Z,11.46
2023-05-10T23:18:34.787Z,11.36
2023-05-10T23:21:03.630Z,11.52
2023-05-10T23:23:32.674Z,11.48
2023-05-10T23:26:00.235Z,11.48
2023-05-10T23:28:27.761Z,11.28
2023-05-10T23:30:56.212Z,11.43
2023-05-10T23:33:24.223Z,11.50
2023-05-10T23:35:51.858Z,11.24
2023-05-10T23:38:20.660Z,11.27
2023-05-10T23:40:49.208Z,11.09
2023-05-10T23:43:17.569Z,11.17
2023-05-10T23:45:53.517Z,11.21
2023-05-10T23:48:21.013Z,11.44
2023-05-10T23:50:49.046Z,11.54
2023-05-10T23:53:16.768Z,11.59
2023-05-10T23:55:46.338Z,11.76
2023-05-10T23:58:13.831Z,11.72
